logo
Search for airport 
image banner adimage banner adimage banner ad
image banner ad

ZWTL - Turpan/Jiaohe

Located in Turpan, China

ICAO - , IATA - TLQ

Data provided by Airmate  

General information

Coordinates: N43°1'48" E89°6'0"
Elevation is 913 feet MSL.
 
View others Airports in Xinjiang Autonomous Region

Operational data

Special qualification required
Current time UTC:
Current local time:
Weather at : - ( 0 km )
METAR: KQFX 170510Z AUTO 34003G11KT 6000 HZ FEW031 22/06 A2985 RMK A02 TSNO
View NOTAMs / SUP AIP / TFR affecting this airport [VIEW]
Communications frequencies: [VIEW]

Runways:

RWY identifierQFULength (ft)Width (ft)SurfaceLDA (ft)
0989°00UNK
27269°00UNK

Airport contact information

Address: Turpan China

Satellite view of ZWTL